La Coruna, Spain
Current Conditions -  °F | °C
As of 3:07 PM on Tuesday 27 Jan 2015 (Local Time) from LECO Reporting Station
Broken Clouds Broken Clouds  
Wind Chill: 11°   Ceiling: 2500
Heat Index: 11°   Visibility: 4mi
Dew Point: 11°   Wind: 3mph
Humidity: 100%   Direction: 360°N
Pressure: 30.5"   Gusts: NA
Location:  43.37°N, 8.4°W
Report Text: LECO 271407Z 36003KT 320V040 7000 FEW004 SCT011 BKN02511/11 Q1033 TEMPO 1400 DZ BR
Loading
Personal Weather Stations






























Interactive Weather Map New forecast layout! Learn more

10-Day Weather Forecast

Advertisements
Track Severe Weather on mobile